Time;durP1;ratioP1;P1;durP2;ratioP2;P2;SDS_P1;SDS_P2;PMS_P1;PMS_P2;Temp;Humidity;BMP_temperature;BMP_pressure;BME280_temperature;BME280_humidity;BME280_pressure;Samples;Min_cycle;Max_cycle;Signal;HPM_P1;HPM_P2
2021/03/04 00:01:22;;;;;;;16.47;8.40;;;6.60;99.90;;;7.65;100.00;98838.88;5004701;28;20463;-80
2021/03/04 00:03:50;;;;;;;14.53;8.60;;;6.60;99.90;;;7.50;100.00;98827.31;5010387;28;20466;-81
2021/03/04 00:06:17;;;;;;;13.00;8.03;;;6.50;99.90;;;7.49;100.00;98834.34;5006048;28;20517;-81
2021/03/04 00:08:46;;;;;;;18.17;8.43;;;6.50;99.90;;;7.29;100.00;98825.00;5008147;28;20549;-81
2021/03/04 00:11:13;;;;;;;17.37;7.80;;;6.30;99.90;;;7.26;100.00;98822.69;5007072;28;20473;-81
2021/03/04 00:13:41;;;;;;;18.40;8.70;;;6.30;99.90;;;7.32;100.00;98822.13;5004718;28;20463;-81
2021/03/04 00:16:09;;;;;;;16.47;8.20;;;6.30;99.90;;;7.24;100.00;98824.66;5007063;28;20589;-81
2021/03/04 00:18:37;;;;;;;18.50;9.23;;;6.30;99.90;;;7.26;100.00;98825.31;5007504;28;20839;-81
2021/03/04 00:21:04;;;;;;;15.17;8.00;;;6.30;99.90;;;7.24;100.00;98819.44;5008575;28;20502;-81
2021/03/04 00:23:32;;;;;;;15.77;7.70;;;6.30;99.90;;;7.15;100.00;98822.91;5006523;28;20490;-81
2021/03/04 00:26:00;;;;;;;11.33;7.43;;;6.20;99.90;;;7.19;100.00;98826.84;5006113;28;20466;-81
2021/03/04 00:28:28;;;;;;;11.53;7.10;;;6.30;99.90;;;7.16;100.00;98821.94;5005999;28;20502;-81
2021/03/04 00:30:56;;;;;;;16.83;8.20;;;6.20;99.90;;;7.04;100.00;98817.94;5007822;28;20458;-80
2021/03/04 00:33:27;;;;;;;16.70;8.87;;;6.00;99.90;;;7.00;100.00;98811.38;5008817;28;20477;-80
2021/03/04 00:35:55;;;;;;;19.70;8.10;;;6.00;99.90;;;6.93;100.00;98818.94;5006230;28;20463;-81
2021/03/04 00:38:22;;;;;;;19.43;7.17;;;5.90;99.90;;;6.91;100.00;98820.03;5008628;28;20454;-81
2021/03/04 00:40:50;;;;;;;20.37;8.03;;;5.90;99.90;;;6.93;100.00;98812.91;5007853;28;20495;-81
2021/03/04 00:43:18;;;;;;;16.73;7.77;;;5.90;99.90;;;6.95;100.00;98817.00;5007662;28;20512;-80
2021/03/04 00:45:46;;;;;;;20.10;8.67;;;6.00;99.90;;;6.79;100.00;98818.59;5007179;28;20459;-81
2021/03/04 00:48:15;;;;;;;15.90;7.80;;;5.80;99.90;;;6.67;100.00;98814.53;5005741;28;20474;-81
2021/03/04 00:50:43;;;;;;;16.33;8.03;;;5.60;99.90;;;6.70;100.00;98814.28;5006067;28;20462;-81
2021/03/04 00:53:11;;;;;;;14.80;8.00;;;5.70;99.90;;;6.66;100.00;98802.53;5006847;28;20470;-81
2021/03/04 00:55:39;;;;;;;15.10;9.00;;;5.60;99.90;;;6.56;100.00;98790.38;5006295;28;20491;-81
2021/03/04 00:58:06;;;;;;;16.30;9.13;;;5.50;99.90;;;6.63;100.00;98784.63;5005007;28;20518;-81
2021/03/04 01:00:35;;;;;;;26.23;8.43;;;5.50;99.90;;;6.58;100.00;98782.44;5008091;28;20581;-81
2021/03/04 01:03:03;;;;;;;12.60;6.97;;;5.60;99.90;;;6.40;100.00;98787.56;5006967;28;20463;-81
2021/03/04 01:05:31;;;;;;;14.93;8.10;;;5.40;99.90;;;6.35;100.00;98792.38;5006760;28;20471;-80
2021/03/04 01:07:59;;;;;;;16.43;7.70;;;5.30;99.90;;;6.26;100.00;98785.44;5005693;28;20467;-80
2021/03/04 01:10:32;;;;;;;32.17;8.70;;;5.20;99.90;;;6.27;100.00;98787.09;5004808;28;20863;-81
2021/03/04 01:13:00;;;;;;;22.80;9.20;;;5.20;99.90;;;6.33;100.00;98783.91;5007182;28;20467;-81
2021/03/04 01:15:29;;;;;;;18.50;8.10;;;5.30;99.90;;;6.13;100.00;98778.91;5007449;28;20532;-80
2021/03/04 01:17:59;;;;;;;16.20;7.87;;;5.10;99.90;;;6.23;100.00;98788.31;5005708;28;20463;-81
2021/03/04 01:20:26;;;;;;;12.40;7.20;;;5.20;99.90;;;6.22;100.00;98788.44;5003308;28;20594;-80
2021/03/04 01:22:54;;;;;;;15.00;7.00;;;5.20;99.90;;;6.25;100.00;98786.38;5004641;28;20971;-81
2021/03/04 01:25:22;;;;;;;13.70;7.33;;;5.40;99.90;;;6.24;100.00;98776.97;5006816;28;20471;-80
2021/03/04 01:27:52;;;;;;;12.13;7.00;;;5.30;99.90;;;6.16;100.00;98776.84;5002649;28;20459;-81
2021/03/04 01:30:24;;;;;;;14.47;8.00;;;5.40;99.90;;;6.20;100.00;98770.44;5004823;28;20998;-80
2021/03/04 01:32:51;;;;;;;11.87;7.80;;;5.30;99.90;;;6.05;100.00;98771.81;5005194;28;20831;-81
2021/03/04 01:35:20;;;;;;;15.63;8.10;;;5.10;99.90;;;5.99;100.00;98759.41;5005233;28;20600;-81
2021/03/04 01:37:48;;;;;;;20.10;8.27;;;5.00;99.90;;;6.06;100.00;98757.91;5003525;28;20537;-81
2021/03/04 01:40:20;;;;;;;19.27;8.37;;;5.20;99.90;;;6.07;100.00;98752.53;5006590;28;21082;-81
2021/03/04 01:42:48;;;;;;;13.40;7.30;;;5.20;99.90;;;5.98;100.00;98749.97;5002525;28;20811;-80
2021/03/04 01:45:18;;;;;;;20.13;8.77;;;5.00;99.90;;;5.97;100.00;98748.38;5004842;28;20516;-80
2021/03/04 01:47:50;;;;;;;14.33;7.13;;;5.00;99.90;;;5.84;100.00;98746.03;5006366;28;20972;-81
2021/03/04 01:50:22;;;;;;;15.57;7.57;;;4.80;99.90;;;5.83;100.00;98748.78;5004380;28;20463;-81
2021/03/04 01:52:50;;;;;;;11.80;7.27;;;4.80;99.90;;;5.71;100.00;98742.09;5006802;28;20513;-80
2021/03/04 01:55:19;;;;;;;12.33;7.57;;;4.60;99.90;;;5.76;100.00;98737.31;5009305;28;20961;-80
2021/03/04 01:57:48;;;;;;;17.80;7.77;;;4.70;99.90;;;5.72;100.00;98730.75;5007318;28;20979;-81
2021/03/04 02:00:20;;;;;;;16.70;7.30;;;4.70;99.90;;;5.73;100.00;98733.19;5009211;28;20498;-81
2021/03/04 02:02:47;;;;;;;13.97;7.73;;;4.70;99.90;;;5.78;100.00;98732.78;5010526;28;20532;-80
2021/03/04 02:05:18;;;;;;;15.20;7.60;;;4.70;99.90;;;5.69;100.00;98721.50;5008802;28;20497;-81
2021/03/04 02:08:01;;;;;;;15.00;8.47;;;4.70;99.90;;;5.64;100.00;98720.25;5009173;28;21223;-80
2021/03/04 02:10:38;;;;;;;11.80;7.30;;;4.70;99.90;;;5.46;100.00;98713.19;5010677;28;20466;-80
2021/03/04 02:13:23;;;;;;;13.97;8.10;;;4.50;99.90;;;5.49;100.00;98718.09;5007452;28;20458;-80
2021/03/04 02:15:56;;;;;;;14.67;7.17;;;4.50;99.90;;;5.58;100.00;98701.72;5009755;28;20463;-80
2021/03/04 02:18:31;;;;;;;19.03;8.27;;;4.60;99.90;;;5.66;100.00;98703.59;5007242;28;20521;-80
2021/03/04 02:21:29;;;;;;;15.30;8.57;;;4.60;99.90;;;5.62;100.00;98709.22;5008444;28;20589;-80
2021/03/04 02:24:25;;;;;;;15.50;7.47;;;4.60;99.90;;;5.55;100.00;98707.16;5010075;28;20560;-81
2021/03/04 02:27:05;;;;;;;13.87;8.50;;;4.60;99.90;;;5.57;100.00;98699.25;5009186;28;20478;-80
2021/03/04 02:29:40;;;;;;;14.07;7.70;;;4.60;99.90;;;5.61;100.00;98699.78;5009655;28;20521;-80
2021/03/04 02:32:11;;;;;;;13.70;7.27;;;4.70;99.90;;;5.67;100.00;98701.81;5007910;28;20474;-80
2021/03/04 02:34:47;;;;;;;17.20;7.70;;;4.70;99.90;;;5.59;100.00;98698.13;5009094;28;20462;-80
2021/03/04 02:37:19;;;;;;;12.60;7.03;;;4.60;99.90;;;5.53;100.00;98693.50;5008325;28;20985;-80
2021/03/04 02:39:49;;;;;;;14.50;7.57;;;4.50;99.90;;;5.54;100.00;98695.16;5008531;28;20544;-80
2021/03/04 02:42:22;;;;;;;11.00;7.03;;;4.50;99.90;;;5.58;100.00;98682.72;5007622;28;20459;-80
2021/03/04 02:44:55;;;;;;;16.00;7.20;;;4.60;99.90;;;5.55;100.00;98685.59;5008121;28;20473;-80
2021/03/04 02:47:23;;;;;;;12.47;7.30;;;4.50;99.90;;;5.51;100.00;98685.06;5007196;28;20466;-80
2021/03/04 02:49:53;;;;;;;11.53;7.20;;;4.50;99.90;;;5.44;100.00;98684.00;5010170;28;20446;-81
2021/03/04 02:52:22;;;;;;;12.67;8.07;;;4.50;99.90;;;5.51;100.00;98677.28;5008176;28;20470;-80
2021/03/04 02:54:51;;;;;;;15.53;7.90;;;4.70;99.90;;;5.56;100.00;98677.66;5009467;28;20700;-80
2021/03/04 02:57:23;;;;;;;14.30;7.20;;;4.70;99.90;;;5.57;100.00;98671.53;5008166;28;20837;-80
2021/03/04 02:59:54;;;;;;;12.27;7.53;;;4.70;99.90;;;5.55;100.00;98670.84;5008882;28;20853;-80
2021/03/04 03:02:22;;;;;;;14.60;7.60;;;4.60;99.90;;;5.53;100.00;98661.56;5008010;28;20972;-80
2021/03/04 03:04:50;;;;;;;13.70;7.50;;;4.60;99.90;;;5.51;100.00;98669.50;5008234;28;20473;-80
2021/03/04 03:07:19;;;;;;;19.37;7.40;;;4.50;99.90;;;5.40;100.00;98671.44;5006310;28;20470;-80
2021/03/04 03:09:47;;;;;;;19.33;7.23;;;4.40;99.90;;;5.46;100.00;98669.09;5007522;28;20471;-80
2021/03/04 03:12:18;;;;;;;13.67;7.90;;;4.50;99.90;;;5.48;100.00;98659.38;5007325;28;20833;-80
2021/03/04 03:14:47;;;;;;;14.00;8.30;;;4.60;99.90;;;5.54;100.00;98655.44;5009979;28;20464;-80
2021/03/04 03:17:15;;;;;;;20.23;7.53;;;4.70;99.90;;;5.57;100.00;98642.19;5007768;28;20463;-80
2021/03/04 03:19:58;;;;;;;17.37;7.00;;;4.70;99.90;;;5.42;100.00;98636.63;5008870;28;21010;-81
2021/03/04 03:22:26;;;;;;;14.47;7.67;;;4.50;99.90;;;5.48;100.00;98641.22;5008388;28;20475;-80
2021/03/04 03:24:55;;;;;;;16.60;8.30;;;4.60;99.90;;;5.50;100.00;98649.72;5008271;28;20465;-81
2021/03/04 03:27:22;;;;;;;18.13;7.80;;;4.60;99.90;;;5.50;100.00;98641.09;5006561;28;20467;-80
2021/03/04 03:29:51;;;;;;;11.20;6.20;;;4.70;99.90;;;5.51;100.00;98633.19;5007758;28;21006;-80
2021/03/04 03:32:20;;;;;;;11.80;6.70;;;4.80;99.90;;;5.51;100.00;98628.00;5006553;28;20475;-80
2021/03/04 03:34:48;;;;;;;10.47;6.63;;;4.70;99.90;;;5.50;100.00;98628.13;5008251;28;20463;-80
2021/03/04 03:37:18;;;;;;;24.53;6.67;;;4.60;99.90;;;5.47;100.00;98646.56;5003825;28;20829;-80
2021/03/04 03:39:49;;;;;;;12.13;6.50;;;4.60;99.90;;;5.31;100.00;98636.75;5008823;28;20458;-80
2021/03/04 03:42:18;;;;;;;16.73;6.00;;;4.40;99.90;;;5.35;100.00;98638.13;5007969;28;20901;-80
2021/03/04 03:44:47;;;;;;;12.17;6.60;;;4.40;99.90;;;5.41;100.00;98641.97;5007833;28;20474;-80
2021/03/04 03:47:17;;;;;;;15.70;7.40;;;4.50;99.90;;;5.43;100.00;98645.22;5006548;28;20463;-80
2021/03/04 03:49:47;;;;;;;9.00;5.80;;;4.50;99.90;;;5.41;100.00;98640.19;5007886;28;20817;-81
2021/03/04 03:52:15;;;;;;;12.37;7.20;;;4.50;99.90;;;5.43;100.00;98635.66;5007972;28;20462;-80
2021/03/04 03:54:43;;;;;;;12.70;6.80;;;4.50;99.90;;;5.38;100.00;98632.66;5008092;28;20454;-80
2021/03/04 03:57:12;;;;;;;10.80;6.90;;;4.50;99.90;;;5.36;100.00;98626.81;5007820;28;20573;-80
2021/03/04 03:59:44;;;;;;;19.90;6.30;;;4.50;99.90;;;5.35;100.00;98624.34;5006537;28;20462;-80
2021/03/04 04:02:13;;;;;;;12.40;6.43;;;4.50;99.90;;;5.34;100.00;98620.13;5004952;28;20459;-80
2021/03/04 04:04:41;;;;;;;13.83;7.20;;;4.40;99.90;;;5.33;100.00;98618.50;5007491;28;21041;-80
2021/03/04 04:07:12;;;;;;;17.53;7.00;;;4.40;99.90;;;5.24;100.00;98627.91;5005503;28;20466;-80
2021/03/04 04:09:40;;;;;;;17.80;6.17;;;4.30;99.90;;;5.21;100.00;98629.97;5007311;28;20478;-80
2021/03/04 04:12:08;;;;;;;12.80;7.07;;;4.20;99.90;;;5.21;100.00;98625.59;5006578;28;20477;-80
2021/03/04 04:14:36;;;;;;;18.43;6.83;;;4.20;99.90;;;5.23;100.00;98634.06;5006231;28;20485;-80
2021/03/04 04:17:04;;;;;;;13.20;6.70;;;4.20;99.90;;;5.27;100.00;98625.06;5006849;28;20970;-80
2021/03/04 04:19:33;;;;;;;14.20;6.90;;;4.30;99.90;;;5.26;100.00;98628.59;5008601;28;20451;-81
2021/03/04 04:22:02;;;;;;;13.10;6.80;;;4.30;99.90;;;5.30;100.00;98616.19;5008654;28;20875;-81
2021/03/04 04:24:31;;;;;;;11.30;6.33;;;4.50;99.90;;;5.29;100.00;98623.13;5008070;28;20716;-80
2021/03/04 04:26:58;;;;;;;14.80;6.43;;;4.60;99.90;;;5.27;100.00;98619.88;5005682;28;20529;-80
2021/03/04 04:29:26;;;;;;;12.13;7.07;;;4.40;99.90;;;5.30;100.00;98614.41;5005803;28;20463;-80
2021/03/04 04:31:53;;;;;;;15.27;7.30;;;4.40;99.90;;;5.19;100.00;98616.34;5006577;28;20513;-80
2021/03/04 04:34:21;;;;;;;18.43;8.57;;;4.30;99.90;;;5.24;100.00;98611.56;5006255;28;20462;-80
2021/03/04 04:36:49;;;;;;;13.10;7.03;;;4.40;99.90;;;5.28;100.00;98600.75;5006324;28;20775;-80
2021/03/04 04:39:17;;;;;;;12.57;7.40;;;4.40;99.90;;;5.24;100.00;98607.16;5005366;28;20474;-80
2021/03/04 04:41:45;;;;;;;15.83;7.37;;;4.30;99.90;;;5.26;100.00;98602.69;5003723;28;20848;-80
2021/03/04 04:44:12;;;;;;;16.43;7.87;;;4.40;99.90;;;5.28;100.00;98594.75;5006660;28;20471;-80
2021/03/04 04:46:40;;;;;;;15.57;7.70;;;4.40;99.90;;;5.22;100.00;98590.94;5005762;28;20801;-80
2021/03/04 04:49:07;;;;;;;17.67;7.70;;;4.30;99.90;;;5.10;100.00;98591.25;5004452;28;20995;-81
2021/03/04 04:51:35;;;;;;;12.77;7.03;;;4.30;99.90;;;5.10;100.00;98599.84;5007670;28;20458;-81
2021/03/04 04:54:03;;;;;;;18.50;6.80;;;4.20;99.90;;;5.16;100.00;98596.69;5003776;28;20948;-81
2021/03/04 04:56:31;;;;;;;11.67;6.43;;;4.20;99.90;;;5.22;100.00;98590.94;5006457;28;20943;-81
2021/03/04 04:58:58;;;;;;;16.23;6.93;;;4.30;99.90;;;5.19;100.00;98586.06;5006054;28;20475;-81
2021/03/04 05:01:26;;;;;;;12.33;7.20;;;4.30;99.90;;;5.15;100.00;98579.50;5005621;28;20502;-81
2021/03/04 05:03:54;;;;;;;13.70;7.77;;;4.30;99.90;;;5.14;100.00;98577.84;5006683;28;20458;-81
2021/03/04 05:06:22;;;;;;;12.40;6.83;;;4.30;99.90;;;5.16;100.00;98578.56;5006015;28;21077;-81
2021/03/04 05:08:49;;;;;;;15.00;7.73;;;4.30;99.90;;;5.18;100.00;98574.03;5005281;28;20459;-81
2021/03/04 05:11:17;;;;;;;16.80;7.20;;;4.30;99.90;;;5.11;100.00;98578.13;5007135;28;20785;-80
2021/03/04 05:13:45;;;;;;;17.17;7.80;;;4.20;99.90;;;5.05;100.00;98579.53;5004089;28;20545;-81
2021/03/04 05:16:13;;;;;;;11.93;6.83;;;4.20;99.90;;;5.08;100.00;98578.44;5002622;28;20498;-81
2021/03/04 05:18:41;;;;;;;13.87;7.50;;;4.20;99.90;;;5.10;100.00;98575.72;4996581;28;20509;-81
2021/03/04 05:21:27;;;;;;;11.10;7.10;;;4.30;99.90;;;5.13;100.00;98576.25;5002229;28;20506;-80
2021/03/04 05:23:55;;;;;;;13.70;7.00;;;4.30;99.90;;;5.13;100.00;98580.59;5004686;28;20474;-81
2021/03/04 05:26:22;;;;;;;13.30;7.10;;;4.30;99.90;;;5.12;100.00;98584.16;5004073;28;20463;-80
2021/03/04 05:28:51;;;;;;;14.30;7.20;;;4.20;99.90;;;5.08;100.00;98574.06;5004611;28;20466;-80
2021/03/04 05:31:18;;;;;;;11.83;6.70;;;4.30;99.90;;;5.08;100.00;98566.28;5003614;28;20466;-81
2021/03/04 05:33:46;;;;;;;12.53;7.10;;;4.20;99.90;;;5.04;100.00;98566.69;5003352;28;20467;-80
2021/03/04 05:36:14;;;;;;;11.90;6.90;;;4.10;99.90;;;4.82;100.00;98556.66;5003496;28;20498;-80
2021/03/04 05:38:41;;;;;;;16.27;7.37;;;3.80;99.90;;;4.76;100.00;98554.59;5004134;28;20470;-81
2021/03/04 05:41:11;;;;;;;11.00;6.90;;;3.80;99.90;;;4.59;100.00;98553.53;5007119;28;20557;-81
2021/03/04 05:43:39;;;;;;;14.73;7.43;;;3.60;99.90;;;4.55;100.00;98549.56;5006721;28;20549;-81
2021/03/04 05:46:08;;;;;;;14.97;7.17;;;3.50;99.90;;;4.58;100.00;98555.28;5007360;28;20458;-81
2021/03/04 05:48:37;;;;;;;16.13;8.50;;;3.50;99.90;;;4.58;100.00;98550.09;5006742;28;20553;-81
2021/03/04 05:51:08;;;;;;;18.67;7.07;;;3.50;99.90;;;4.59;100.00;98550.94;5006571;28;20451;-81
2021/03/04 05:53:37;;;;;;;16.53;7.27;;;3.60;99.90;;;4.55;100.00;98545.22;5006847;28;20891;-81
2021/03/04 05:56:05;;;;;;;14.17;8.00;;;3.50;99.90;;;4.47;100.00;98550.28;5006545;28;20486;-81
2021/03/04 05:58:35;;;;;;;13.87;8.60;;;3.40;99.90;;;4.56;100.00;98544.25;5006732;28;20439;-81
2021/03/04 06:01:03;;;;;;;13.17;8.10;;;3.50;99.90;;;4.45;100.00;98544.38;5007309;28;20498;-81
2021/03/04 06:03:33;;;;;;;13.17;8.20;;;3.40;99.90;;;4.45;100.00;98549.56;5006592;28;20477;-81
2021/03/04 06:06:02;;;;;;;15.37;8.13;;;3.50;99.90;;;4.48;100.00;98549.28;5006969;28;20455;-81
2021/03/04 06:08:30;;;;;;;14.03;8.03;;;3.50;99.90;;;4.48;100.00;98543.28;5006526;28;20461;-81
2021/03/04 06:10:57;;;;;;;17.47;7.83;;;3.50;99.90;;;4.48;100.00;98536.34;5006305;28;20967;-81
2021/03/04 06:13:25;;;;;;;14.10;8.63;;;3.50;99.90;;;4.40;100.00;98549.19;5006482;28;20451;-80
2021/03/04 06:15:53;;;;;;;23.70;8.97;;;3.40;99.90;;;4.32;100.00;98537.84;5006503;28;20463;-81
2021/03/04 06:18:21;;;;;;;16.20;8.03;;;3.30;99.90;;;4.37;100.00;98541.66;5005960;28;20451;-81
2021/03/04 06:20:50;;;;;;;13.83;7.27;;;3.40;99.90;;;4.35;100.00;98538.41;5005655;28;20509;-81
2021/03/04 06:23:31;;;;;;;21.27;9.00;;;3.40;99.90;;;4.34;100.00;98536.75;5003567;28;20466;-81
2021/03/04 06:25:59;;;;;;;21.57;9.43;;;3.40;99.90;;;4.22;100.00;98535.25;5003110;28;20972;-81
2021/03/04 06:28:31;;;;;;;14.70;8.53;;;3.20;99.90;;;4.14;100.00;98532.53;5003433;28;20495;-81
2021/03/04 06:30:59;;;;;;;35.20;8.57;;;3.10;99.90;;;4.13;100.00;98536.06;5004030;28;20881;-81
2021/03/04 06:33:35;;;;;;;14.13;8.40;;;3.10;99.90;;;4.15;100.00;98547.09;5003312;28;20471;-81
2021/03/04 06:36:14;;;;;;;13.90;8.30;;;3.20;99.90;;;4.23;100.00;98523.16;5005137;28;20467;-80
2021/03/04 06:38:53;;;;;;;12.60;7.73;;;3.40;99.90;;;4.29;100.00;98525.19;5004612;28;20470;-80
2021/03/04 06:41:21;;;;;;;17.50;7.87;;;3.50;99.90;;;4.37;100.00;98515.75;5009288;28;20504;-80
2021/03/04 06:44:00;;;;;;;18.30;9.07;;;3.50;99.90;;;4.27;100.00;98520.13;5007123;28;20485;-80
2021/03/04 06:46:28;;;;;;;18.33;9.27;;;3.40;99.90;;;4.35;100.00;98512.50;5009830;28;20552;-80
2021/03/04 06:48:56;;;;;;;14.37;9.33;;;3.40;99.90;;;4.36;100.00;98514.16;5011244;28;20458;-80
2021/03/04 06:51:24;;;;;;;13.27;8.57;;;3.50;99.90;;;4.38;100.00;98527.75;5011146;28;20896;-80
2021/03/04 06:53:54;;;;;;;21.53;8.90;;;3.50;99.90;;;4.40;100.00;98510.34;5011122;28;21392;-80
2021/03/04 06:56:31;;;;;;;13.97;8.23;;;3.60;99.90;;;4.40;100.00;98518.13;5010738;28;20545;-80
2021/03/04 06:59:00;;;;;;;16.90;7.90;;;3.50;99.90;;;4.42;100.00;98508.44;5011050;28;20450;-80
2021/03/04 07:01:39;;;;;;;14.53;8.00;;;3.60;99.90;;;4.41;100.00;98511.97;5011182;28;20955;-80
2021/03/04 07:04:14;;;;;;;13.30;8.57;;;3.50;99.90;;;4.36;100.00;98503.81;5010336;28;20966;-81
2021/03/04 07:06:46;;;;;;;22.27;12.40;;;3.40;99.90;;;4.39;100.00;98513.06;5011190;28;20461;-81
2021/03/04 07:09:16;;;;;;;18.57;9.23;;;3.50;99.90;;;4.41;100.00;98506.78;5012138;28;20459;-81
2021/03/04 07:11:45;;;;;;;13.10;8.27;;;3.50;99.90;;;4.48;100.00;98499.28;5013482;28;20493;-80
2021/03/04 07:14:13;;;;;;;18.53;9.57;;;3.50;99.90;;;4.41;100.00;98506.78;5012859;28;21003;-80
2021/03/04 07:16:44;;;;;;;16.53;9.37;;;3.50;99.90;;;4.46;100.00;98514.97;5012694;28;20458;-80
2021/03/04 07:19:17;;;;;;;15.03;8.33;;;3.60;99.90;;;4.51;100.00;98501.63;5012448;28;20572;-80
2021/03/04 07:21:49;;;;;;;17.17;9.97;;;3.60;99.90;;;4.62;100.00;98511.00;5012277;28;20498;-80
2021/03/04 07:24:18;;;;;;;16.87;9.03;;;3.80;99.90;;;4.67;100.00;98520.00;5011595;28;20462;-80
2021/03/04 07:26:46;;;;;;;17.33;8.97;;;3.90;99.90;;;4.69;100.00;98514.66;5012829;28;20462;-80
2021/03/04 07:29:16;;;;;;;24.70;9.70;;;3.80;99.90;;;4.82;100.00;98504.84;5012807;28;20470;-80
2021/03/04 07:31:46;;;;;;;18.10;9.43;;;4.00;99.90;;;4.87;100.00;98505.22;5011789;28;20470;-80
2021/03/04 07:34:19;;;;;;;15.20;8.63;;;4.00;99.90;;;4.93;100.00;98502.88;5011019;28;20466;-80
2021/03/04 07:36:51;;;;;;;21.73;10.00;;;4.10;99.90;;;5.00;100.00;98508.31;5011183;28;20469;-80
2021/03/04 07:39:31;;;;;;;20.70;9.43;;;4.20;99.90;;;5.05;100.00;98504.38;5011413;28;20466;-80
2021/03/04 07:42:00;;;;;;;22.67;11.27;;;4.40;99.90;;;5.14;100.00;98505.28;5012016;28;20495;-80
2021/03/04 07:44:31;;;;;;;20.30;10.60;;;4.40;99.90;;;5.16;100.00;98498.19;5012104;28;21030;-80
2021/03/04 07:47:02;;;;;;;15.63;9.53;;;4.40;99.90;;;5.23;100.00;98488.91;5012422;28;20467;-80
2021/03/04 07:49:34;;;;;;;19.87;10.03;;;4.50;99.90;;;5.29;100.00;98492.69;5012030;28;20458;-80
2021/03/04 07:52:13;;;;;;;17.67;10.13;;;4.50;99.90;;;5.30;100.00;98489.97;5012398;28;20459;-79
2021/03/04 07:54:47;;;;;;;21.00;9.87;;;4.50;99.90;;;5.37;100.00;98491.03;5013131;28;20505;-80
2021/03/04 07:57:17;;;;;;;19.90;10.40;;;4.60;99.90;;;5.44;100.00;98486.09;5011362;28;20503;-80
2021/03/04 07:59:55;;;;;;;14.03;9.77;;;4.60;99.90;;;5.51;100.00;98480.19;5011163;28;20856;-80
2021/03/04 08:02:26;;;;;;;20.70;10.50;;;4.70;99.90;;;5.60;100.00;98478.47;5011900;28;21018;-80
2021/03/04 08:05:07;;;;;;;17.93;10.70;;;4.90;99.90;;;5.71;100.00;98464.50;5011119;28;20506;-81
2021/03/04 08:07:44;;;;;;;20.33;9.40;;;5.00;99.90;;;5.80;100.00;98461.00;5011667;28;20924;-80
2021/03/04 08:10:17;;;;;;;24.83;10.63;;;5.00;99.90;;;5.88;100.00;98450.75;5011406;28;20455;-80
2021/03/04 08:12:49;;;;;;;22.97;10.63;;;5.10;99.90;;;5.92;100.00;98458.09;5012375;28;20458;-80
2021/03/04 08:15:32;;;;;;;15.00;9.90;;;5.20;99.90;;;5.96;100.00;98462.03;5011763;28;20876;-80
2021/03/04 08:18:02;;;;;;;17.70;10.37;;;5.20;99.90;;;6.01;100.00;98462.41;5011529;28;20451;-81
2021/03/04 08:20:31;;;;;;;18.80;10.50;;;5.20;99.90;;;6.05;100.00;98466.34;5009777;28;20462;-80
2021/03/04 08:23:00;;;;;;;21.93;10.10;;;5.30;99.90;;;6.14;100.00;98458.63;5010681;28;20834;-80
2021/03/04 08:25:31;;;;;;;19.00;9.53;;;5.40;99.90;;;6.20;100.00;98451.06;5010710;28;20463;-80
2021/03/04 08:28:01;;;;;;;19.63;10.63;;;5.50;99.90;;;6.26;100.00;98453.06;5010756;28;20970;-80
2021/03/04 08:30:35;;;;;;;21.57;10.30;;;5.60;99.90;;;6.32;100.00;98452.44;5011118;28;20470;-80
2021/03/04 08:33:08;;;;;;;16.40;8.90;;;5.60;99.90;;;6.37;100.00;98452.00;5009067;28;20538;-80
2021/03/04 08:35:40;;;;;;;20.00;10.50;;;5.70;99.90;;;6.43;100.00;98451.41;5010461;28;20569;-80
2021/03/04 08:38:14;;;;;;;20.53;10.50;;;5.70;99.90;;;6.47;100.00;98447.53;5010717;28;20912;-81
2021/03/04 08:40:48;;;;;;;16.87;10.60;;;5.70;99.90;;;6.51;100.00;98439.31;5011435;28;20505;-80
2021/03/04 08:43:19;;;;;;;22.33;10.33;;;5.80;99.90;;;6.55;100.00;98442.41;5010502;28;20462;-80
2021/03/04 08:45:54;;;;;;;29.00;10.70;;;5.80;99.90;;;6.58;100.00;98434.31;5010246;28;20469;-80
2021/03/04 08:48:24;;;;;;;19.13;11.03;;;5.80;99.90;;;6.64;100.00;98436.28;5009549;28;20484;-80
2021/03/04 08:50:56;;;;;;;22.37;11.80;;;5.90;99.90;;;6.69;100.00;98436.66;5010397;28;20963;-80
2021/03/04 08:53:30;;;;;;;26.83;11.43;;;5.90;99.90;;;6.74;100.00;98430.97;5010935;28;20542;-80
2021/03/04 08:56:00;;;;;;;22.13;11.30;;;6.00;99.90;;;6.81;100.00;98432.00;5010728;28;20594;-80
2021/03/04 08:58:30;;;;;;;25.33;10.73;;;6.10;99.90;;;6.83;100.00;98425.69;5009193;28;21001;-80
2021/03/04 09:01:01;;;;;;;30.43;11.43;;;6.10;99.90;;;6.91;100.00;98417.94;5009804;28;20494;-80
2021/03/04 09:03:35;;;;;;;23.40;10.60;;;6.20;99.90;;;7.00;100.00;98417.03;5009969;28;20451;-80
2021/03/04 09:06:10;;;;;;;25.90;12.13;;;6.30;99.90;;;7.10;100.00;98411.69;5010434;28;20831;-80
2021/03/04 09:08:42;;;;;;;33.73;12.23;;;6.40;99.90;;;7.22;100.00;98402.63;5010727;28;20466;-80
2021/03/04 09:11:27;;;;;;;20.10;11.30;;;6.60;99.90;;;7.31;100.00;98398.28;5010513;28;20462;-80
2021/03/04 09:14:06;;;;;;;23.47;12.30;;;6.70;99.90;;;7.38;100.00;98394.91;5010487;28;20517;-81
2021/03/04 09:16:39;;;;;;;23.40;11.87;;;6.80;99.90;;;7.45;100.00;98393.28;5011263;28;20467;-80
2021/03/04 09:19:08;;;;;;;21.77;12.00;;;6.90;99.90;;;7.52;100.00;98396.06;5009909;28;20494;-80
2021/03/04 09:21:43;;;;;;;29.87;12.10;;;6.90;99.90;;;7.60;100.00;98401.31;5010302;28;20509;-80
2021/03/04 09:24:20;;;;;;;32.90;12.13;;;7.00;99.90;;;7.67;100.00;98393.66;5009758;28;20979;-80
2021/03/04 09:26:49;;;;;;;28.90;11.97;;;7.10;99.90;;;7.77;100.00;98400.38;5010365;28;20450;-80
2021/03/04 09:29:20;;;;;;;23.43;13.07;;;7.20;99.90;;;7.92;100.00;98387.50;5008178;28;20966;-80
2021/03/04 09:31:55;;;;;;;23.70;12.27;;;7.30;99.90;;;8.03;100.00;98388.00;5009057;28;20466;-80
2021/03/04 09:34:38;;;;;;;26.77;11.40;;;7.40;99.90;;;8.10;100.00;98386.38;5010064;28;20473;-80
2021/03/04 09:37:12;;;;;;;27.23;10.93;;;7.50;99.90;;;8.22;100.00;98386.88;5009841;28;20481;-80
2021/03/04 09:39:51;;;;;;;33.03;11.20;;;7.60;99.90;;;8.28;100.00;98383.66;5011363;28;20797;-80
2021/03/04 09:42:32;;;;;;;28.80;11.43;;;7.70;99.90;;;8.35;100.00;98384.63;5009966;28;21088;-80
2021/03/04 09:45:08;;;;;;;32.10;12.67;;;7.80;99.90;;;8.45;100.00;98380.03;5007995;28;20467;-81
2021/03/04 09:47:43;;;;;;;28.47;12.20;;;7.90;99.90;;;8.51;100.00;98376.75;5009657;28;20470;-80
2021/03/04 09:50:29;;;;;;;20.97;12.40;;;8.00;99.90;;;8.58;100.00;98377.72;5010081;28;20450;-80
2021/03/04 09:53:06;;;;;;;26.23;12.63;;;8.00;99.90;;;8.69;100.00;98370.53;5009427;28;20463;-80
2021/03/04 09:55:49;;;;;;;26.40;12.70;;;8.10;99.90;;;8.83;100.00;98372.44;5009211;28;20497;-80
2021/03/04 09:58:24;;;;;;;33.40;14.43;;;8.20;99.90;;;9.00;100.00;98368.81;5009855;28;20459;-80
2021/03/04 10:01:01;;;;;;;24.60;12.80;;;8.40;99.90;;;9.12;100.00;98372.69;5009737;28;20461;-80
2021/03/04 10:03:42;;;;;;;23.63;12.40;;;8.50;99.90;;;9.33;100.00;98359.06;5008025;28;20470;-80
2021/03/04 10:06:24;;;;;;;34.97;13.50;;;8.70;99.90;;;9.43;100.00;98365.69;5008454;28;20462;-80
2021/03/04 10:08:57;;;;;;;29.77;13.13;;;8.80;99.90;;;9.47;100.00;98364.34;5009722;28;20574;-80
2021/03/04 10:11:32;;;;;;;30.47;13.80;;;9.00;99.90;;;9.63;100.00;98360.00;5009415;28;20465;-80
2021/03/04 10:14:12;;;;;;;25.27;12.80;;;9.00;99.90;;;9.68;100.00;98362.94;5010267;28;20792;-80
2021/03/04 10:16:41;;;;;;;26.33;14.07;;;9.00;99.90;;;9.79;100.00;98360.69;5013346;28;20959;-80
2021/03/04 10:19:10;;;;;;;31.40;14.07;;;9.20;99.90;;;9.87;100.00;98359.84;5013595;28;20916;-80
2021/03/04 10:21:38;;;;;;;28.87;13.03;;;9.20;99.90;;;9.93;100.00;98361.75;5013461;28;20498;-80
2021/03/04 10:24:06;;;;;;;35.20;13.27;;;9.30;99.90;;;9.97;100.00;98355.19;5013193;28;20505;-80
2021/03/04 10:26:35;;;;;;;29.20;13.97;;;9.40;99.90;;;10.02;100.00;98345.03;5012876;28;20451;-80
2021/03/04 10:29:03;;;;;;;47.40;13.73;;;9.40;99.90;;;10.04;100.00;98343.88;5013041;28;20471;-79
2021/03/04 10:31:31;;;;;;;30.33;14.37;;;9.40;99.90;;;10.13;100.00;98341.19;5012550;28;20513;-80
2021/03/04 10:33:59;;;;;;;29.00;14.70;;;9.50;99.90;;;10.17;100.00;98342.50;5013053;28;20459;-80